BrazilFixed distance
50K Ultra Marathon Brazil
7 Sep2013
Distance
51km
Finishers
2120 men1 women
Winning time
4:37:28h
Pace distribution
21 finishers · 6.54–11.03 km/h
6.54 km/hmedian 8.4411.03 km/h
Results
Ranks 1–21 of 21
| Rank | Runner | Time | Pace | Cat. | Placing |
|---|---|---|---|---|---|
| 1 | Boracorre/apcef/bpm | 4:37:28h | 11.03 | M50 | 1st M · 1st M50 |
| 2 | Eric Gozlan | 4:39:25h | 10.95 | M35 | 2nd M · 1st M35 |
| 3 | Filho | 4:44:17h | 10.76 | M35 | 3rd M · 2nd M35 |
| 4 | Trainer | 4:47:28h | 10.64 | M35 | 4th M · 3rd M35 |
| 5 | Cw Runners / Correios | 4:50:08h | 10.55 | M23 | 5th M · 1st M23 |
| 6 | Projeta Turismo | 4:52:35h | 10.46 | M40 | 6th M · 1st M40 |
| 7 | Upfit | 5:25:21h | 9.40 | M35 | 7th M · 4th M35 |
| 8 | Tavares | 5:37:27h | 9.07 | M45 | 8th M · 1st M45 |
| 9 | Equipe Pe No Asfalto | 5:52:11h | 8.69 | M40 | 9th M · 2nd M40 |
| 10 | Jacaré De Conga | 6:00:59h | 8.48 | M40 | 10th M · 3rd M40 |
| 11 | Bmb Run | 6:02:31h | 8.44 | M23 | 11th M · 2nd M23 |
| 12 | Altiseg Adventure Team | 6:11:00h | 8.25 | M23 | 12th M · 3rd M23 |
| 13 | Bichos Runners | 6:25:26h | 7.94 | M23 | 13th M · 4th M23 |
| 14 | Jacaré De Conga | 6:28:45h | 7.87 | M35 | 14th M · 5th M35 |
| 15 | Bichos Running | 6:38:00h | 7.69 | M23 | 15th M · 5th M23 |
| 16 | Madeiras Macanhao | 6:42:35h | 7.60 | M50 | 16th M · 2nd M50 |
| 17 | Takeda | 6:46:11h | 7.53 | W60 | 1st F · 1st W60 |
| 18 | Pegasus | 6:59:02h | 7.30 | M40 | 17th M · 4th M40 |
| 19 | Jacaré De Conga | 7:05:10h | 7.20 | M55 | 18th M · 1st M55 |
| 20 | Pirâmide Dourada | 7:15:52h | 7.02 | M65 | 19th M · 1st M65 |
| 21 | Quero Quero | 7:48:02h | 6.54 | M55 | 20th M · 2nd M55 |
- 1Boracorre/apcef/bpm1st M · 1st M50Time4:37:28hPace11.03Cat.M50
- 2Eric Gozlan2nd M · 1st M35Time4:39:25hPace10.95Cat.M35
- 3Filho3rd M · 2nd M35Time4:44:17hPace10.76Cat.M35
- 4Trainer4th M · 3rd M35Time4:47:28hPace10.64Cat.M35
- 5Cw Runners / Correios5th M · 1st M23Time4:50:08hPace10.55Cat.M23
- 6Projeta Turismo6th M · 1st M40Time4:52:35hPace10.46Cat.M40
- 7Upfit7th M · 4th M35Time5:25:21hPace9.40Cat.M35
- 8Tavares8th M · 1st M45Time5:37:27hPace9.07Cat.M45
- 9Equipe Pe No Asfalto9th M · 2nd M40Time5:52:11hPace8.69Cat.M40
- 10Jacaré De Conga10th M · 3rd M40Time6:00:59hPace8.48Cat.M40
- 11Bmb Run11th M · 2nd M23Time6:02:31hPace8.44Cat.M23
- 12Altiseg Adventure Team12th M · 3rd M23Time6:11:00hPace8.25Cat.M23
- 13Bichos Runners13th M · 4th M23Time6:25:26hPace7.94Cat.M23
- 14Jacaré De Conga14th M · 5th M35Time6:28:45hPace7.87Cat.M35
- 15Bichos Running15th M · 5th M23Time6:38:00hPace7.69Cat.M23
- 16Madeiras Macanhao16th M · 2nd M50Time6:42:35hPace7.60Cat.M50
- 17Takeda1st F · 1st W60Time6:46:11hPace7.53Cat.W60
- 18Pegasus17th M · 4th M40Time6:59:02hPace7.30Cat.M40
- 19Jacaré De Conga18th M · 1st M55Time7:05:10hPace7.20Cat.M55
- 20Pirâmide Dourada19th M · 1st M65Time7:15:52hPace7.02Cat.M65
- 21Quero Quero20th M · 2nd M55Time7:48:02hPace6.54Cat.M55